sensor_id;sensor_type;location;lat;lon;timestamp;temperature;humidity
69009;SHT31;56065;52.472;13.380;2022-08-25T00:01:19;22.53;77.07
69009;SHT31;56065;52.472;13.380;2022-08-25T00:03:46;22.51;77.03
69009;SHT31;56065;52.472;13.380;2022-08-25T00:06:12;22.46;76.98
69009;SHT31;56065;52.472;13.380;2022-08-25T00:08:39;22.45;76.90
69009;SHT31;56065;52.472;13.380;2022-08-25T00:11:06;22.42;77.10
69009;SHT31;56065;52.472;13.380;2022-08-25T00:13:32;22.38;77.21
69009;SHT31;56065;52.472;13.380;2022-08-25T00:15:58;22.35;77.28
69009;SHT31;56065;52.472;13.380;2022-08-25T00:18:24;22.28;77.38
69009;SHT31;56065;52.472;13.380;2022-08-25T00:20:49;22.24;77.54
69009;SHT31;56065;52.472;13.380;2022-08-25T00:23:15;22.22;77.74
69009;SHT31;56065;52.472;13.380;2022-08-25T00:25:40;22.19;77.84
69009;SHT31;56065;52.472;13.380;2022-08-25T00:28:06;22.15;77.95
69009;SHT31;56065;52.472;13.380;2022-08-25T00:30:31;22.15;77.90
69009;SHT31;56065;52.472;13.380;2022-08-25T00:32:56;22.14;78.07
69009;SHT31;56065;52.472;13.380;2022-08-25T00:35:23;22.09;78.10
69009;SHT31;56065;52.472;13.380;2022-08-25T00:37:49;22.12;77.96
69009;SHT31;56065;52.472;13.380;2022-08-25T00:40:14;22.09;78.02
69009;SHT31;56065;52.472;13.380;2022-08-25T00:42:40;22.11;78.17
69009;SHT31;56065;52.472;13.380;2022-08-25T00:45:07;22.05;78.28
69009;SHT31;56065;52.472;13.380;2022-08-25T00:47:33;22.05;78.21
69009;SHT31;56065;52.472;13.380;2022-08-25T00:50:00;22.02;78.48
69009;SHT31;56065;52.472;13.380;2022-08-25T00:52:31;22.02;78.50
69009;SHT31;56065;52.472;13.380;2022-08-25T00:55:03;22.02;78.67
69009;SHT31;56065;52.472;13.380;2022-08-25T00:57:33;22.04;78.49
69009;SHT31;56065;52.472;13.380;2022-08-25T00:59:59;22.01;78.61
69009;SHT31;56065;52.472;13.380;2022-08-25T01:02:25;22.01;78.46
69009;SHT31;56065;52.472;13.380;2022-08-25T01:04:50;22.02;78.43
69009;SHT31;56065;52.472;13.380;2022-08-25T01:07:18;21.98;78.61
69009;SHT31;56065;52.472;13.380;2022-08-25T01:09:45;21.97;78.57
69009;SHT31;56065;52.472;13.380;2022-08-25T01:12:12;21.94;78.66
69009;SHT31;56065;52.472;13.380;2022-08-25T01:14:38;21.93;79.10
69009;SHT31;56065;52.472;13.380;2022-08-25T01:17:03;21.95;78.99
69009;SHT31;56065;52.472;13.380;2022-08-25T01:19:31;21.94;78.91
69009;SHT31;56065;52.472;13.380;2022-08-25T01:21:59;21.94;78.82
69009;SHT31;56065;52.472;13.380;2022-08-25T01:25:01;21.90;79.12
69009;SHT31;56065;52.472;13.380;2022-08-25T01:27:28;21.87;79.01
69009;SHT31;56065;52.472;13.380;2022-08-25T01:29:54;21.85;79.11
69009;SHT31;56065;52.472;13.380;2022-08-25T01:32:20;21.85;79.00
69009;SHT31;56065;52.472;13.380;2022-08-25T01:34:45;21.84;78.98
69009;SHT31;56065;52.472;13.380;2022-08-25T01:37:13;21.80;79.25
69009;SHT31;56065;52.472;13.380;2022-08-25T01:39:40;21.85;79.15
69009;SHT31;56065;52.472;13.380;2022-08-25T01:44:35;21.78;79.26
69009;SHT31;56065;52.472;13.380;2022-08-25T01:47:02;21.74;79.28
69009;SHT31;56065;52.472;13.380;2022-08-25T01:49:27;21.76;79.22
69009;SHT31;56065;52.472;13.380;2022-08-25T01:52:31;21.71;79.36
69009;SHT31;56065;52.472;13.380;2022-08-25T01:54:57;21.67;79.34
69009;SHT31;56065;52.472;13.380;2022-08-25T01:57:23;21.61;79.54
69009;SHT31;56065;52.472;13.380;2022-08-25T01:59:48;21.58;79.63
69009;SHT31;56065;52.472;13.380;2022-08-25T02:02:14;21.54;79.80
69009;SHT31;56065;52.472;13.380;2022-08-25T02:04:39;21.53;79.62
69009;SHT31;56065;52.472;13.380;2022-08-25T02:07:07;21.46;79.97
69009;SHT31;56065;52.472;13.380;2022-08-25T02:09:33;21.47;79.80
69009;SHT31;56065;52.472;13.380;2022-08-25T02:11:59;21.45;79.99
69009;SHT31;56065;52.472;13.380;2022-08-25T02:14:25;21.42;79.93
69009;SHT31;56065;52.472;13.380;2022-08-25T02:16:51;21.39;80.00
69009;SHT31;56065;52.472;13.380;2022-08-25T02:19:19;21.37;80.09
69009;SHT31;56065;52.472;13.380;2022-08-25T02:21:44;21.37;80.03
69009;SHT31;56065;52.472;13.380;2022-08-25T02:24:10;21.37;80.09
69009;SHT31;56065;52.472;13.380;2022-08-25T02:26:36;21.35;80.28
69009;SHT31;56065;52.472;13.380;2022-08-25T02:29:04;21.33;80.11
69009;SHT31;56065;52.472;13.380;2022-08-25T02:31:30;21.32;80.36
69009;SHT31;56065;52.472;13.380;2022-08-25T02:33:56;21.30;80.26
69009;SHT31;56065;52.472;13.380;2022-08-25T02:36:22;21.27;80.56
69009;SHT31;56065;52.472;13.380;2022-08-25T02:38:48;21.25;80.50
69009;SHT31;56065;52.472;13.380;2022-08-25T02:41:16;21.25;80.48
69009;SHT31;56065;52.472;13.380;2022-08-25T02:43:43;21.22;80.58
69009;SHT31;56065;52.472;13.380;2022-08-25T02:46:09;21.25;80.63
69009;SHT31;56065;52.472;13.380;2022-08-25T02:48:36;21.25;80.72
69009;SHT31;56065;52.472;13.380;2022-08-25T02:51:02;21.22;80.71
69009;SHT31;56065;52.472;13.380;2022-08-25T02:53:28;21.23;80.56
69009;SHT31;56065;52.472;13.380;2022-08-25T02:55:54;21.19;80.76
69009;SHT31;56065;52.472;13.380;2022-08-25T02:58:20;21.15;80.84
69009;SHT31;56065;52.472;13.380;2022-08-25T03:00:47;21.19;80.81
69009;SHT31;56065;52.472;13.380;2022-08-25T03:03:16;21.15;81.37
69009;SHT31;56065;52.472;13.380;2022-08-25T03:05:42;21.13;81.01
69009;SHT31;56065;52.472;13.380;2022-08-25T03:08:08;21.13;81.18
69009;SHT31;56065;52.472;13.380;2022-08-25T03:10:33;21.10;81.14
69009;SHT31;56065;52.472;13.380;2022-08-25T03:12:59;21.10;81.03
69009;SHT31;56065;52.472;13.380;2022-08-25T03:15:25;21.07;81.20
69009;SHT31;56065;52.472;13.380;2022-08-25T03:17:52;21.06;81.34
69009;SHT31;56065;52.472;13.380;2022-08-25T03:20:19;21.03;81.42
69009;SHT31;56065;52.472;13.380;2022-08-25T03:22:45;21.06;81.18
69009;SHT31;56065;52.472;13.380;2022-08-25T03:25:10;21.05;81.24
69009;SHT31;56065;52.472;13.380;2022-08-25T03:27:54;21.05;81.48
69009;SHT31;56065;52.472;13.380;2022-08-25T03:30:20;21.03;81.35
69009;SHT31;56065;52.472;13.380;2022-08-25T03:32:45;21.02;81.30
69009;SHT31;56065;52.472;13.380;2022-08-25T03:35:11;21.00;81.40
69009;SHT31;56065;52.472;13.380;2022-08-25T03:37:37;20.98;81.40
69009;SHT31;56065;52.472;13.380;2022-08-25T03:40:05;20.94;81.48
69009;SHT31;56065;52.472;13.380;2022-08-25T03:42:31;20.92;81.58
69009;SHT31;56065;52.472;13.380;2022-08-25T03:44:57;20.95;81.50
69009;SHT31;56065;52.472;13.380;2022-08-25T03:47:22;20.92;81.65
69009;SHT31;56065;52.472;13.380;2022-08-25T03:49:50;20.91;81.77
69009;SHT31;56065;52.472;13.380;2022-08-25T03:52:16;20.86;81.85
69009;SHT31;56065;52.472;13.380;2022-08-25T03:54:42;20.86;81.94
69009;SHT31;56065;52.472;13.380;2022-08-25T03:57:08;20.86;81.83
69009;SHT31;56065;52.472;13.380;2022-08-25T03:59:33;20.86;81.86
69009;SHT31;56065;52.472;13.380;2022-08-25T04:02:02;20.88;81.72
69009;SHT31;56065;52.472;13.380;2022-08-25T04:04:27;20.91;81.64
69009;SHT31;56065;52.472;13.380;2022-08-25T04:06:53;20.88;81.66
69009;SHT31;56065;52.472;13.380;2022-08-25T04:09:18;20.88;81.71
69009;SHT31;56065;52.472;13.380;2022-08-25T04:11:44;20.89;81.64
69009;SHT31;56065;52.472;13.380;2022-08-25T04:14:09;20.88;81.76
69009;SHT31;56065;52.472;13.380;2022-08-25T04:16:35;20.86;81.82
69009;SHT31;56065;52.472;13.380;2022-08-25T04:19:03;20.86;81.72
69009;SHT31;56065;52.472;13.380;2022-08-25T04:21:30;20.84;81.82
69009;SHT31;56065;52.472;13.380;2022-08-25T04:23:56;20.85;81.71
69009;SHT31;56065;52.472;13.380;2022-08-25T04:26:35;20.86;81.80
69009;SHT31;56065;52.472;13.380;2022-08-25T04:29:03;20.91;81.69
69009;SHT31;56065;52.472;13.380;2022-08-25T04:31:29;20.92;81.68
69009;SHT31;56065;52.472;13.380;2022-08-25T04:33:55;20.95;81.67
69009;SHT31;56065;52.472;13.380;2022-08-25T04:36:21;20.96;81.57
69009;SHT31;56065;52.472;13.380;2022-08-25T04:38:48;20.96;81.66
69009;SHT31;56065;52.472;13.380;2022-08-25T04:41:16;20.96;81.58
69009;SHT31;56065;52.472;13.380;2022-08-25T04:43:43;20.99;81.57
69009;SHT31;56065;52.472;13.380;2022-08-25T04:46:20;21.06;81.40
69009;SHT31;56065;52.472;13.380;2022-08-25T04:48:48;21.07;81.38
69009;SHT31;56065;52.472;13.380;2022-08-25T04:51:22;21.13;81.35
69009;SHT31;56065;52.472;13.380;2022-08-25T04:53:49;21.16;81.18
69009;SHT31;56065;52.472;13.380;2022-08-25T04:56:17;21.18;81.06
69009;SHT31;56065;52.472;13.380;2022-08-25T04:58:43;21.22;81.02
69009;SHT31;56065;52.472;13.380;2022-08-25T05:01:13;21.30;80.94
69009;SHT31;56065;52.472;13.380;2022-08-25T05:03:44;21.40;80.81
69009;SHT31;56065;52.472;13.380;2022-08-25T05:06:11;21.47;80.56
69009;SHT31;56065;52.472;13.380;2022-08-25T05:08:36;21.51;80.33
69009;SHT31;56065;52.472;13.380;2022-08-25T05:11:05;21.58;80.05
69009;SHT31;56065;52.472;13.380;2022-08-25T05:13:31;21.61;80.04
69009;SHT31;56065;52.472;13.380;2022-08-25T05:15:58;21.67;79.86
69009;SHT31;56065;52.472;13.380;2022-08-25T05:18:25;21.68;79.88
69009;SHT31;56065;52.472;13.380;2022-08-25T05:20:52;21.74;79.68
69009;SHT31;56065;52.472;13.380;2022-08-25T05:23:19;21.77;79.76
69009;SHT31;56065;52.472;13.380;2022-08-25T05:25:45;21.81;79.71
69009;SHT31;56065;52.472;13.380;2022-08-25T05:28:11;21.88;79.81
69009;SHT31;56065;52.472;13.380;2022-08-25T05:30:38;21.98;79.63
69009;SHT31;56065;52.472;13.380;2022-08-25T05:33:04;22.04;79.50
69009;SHT31;56065;52.472;13.380;2022-08-25T05:35:29;22.09;79.26
69009;SHT31;56065;52.472;13.380;2022-08-25T05:37:55;22.21;79.18
69009;SHT31;56065;52.472;13.380;2022-08-25T05:40:21;22.35;78.76
69009;SHT31;56065;52.472;13.380;2022-08-25T05:42:47;22.41;78.66
69009;SHT31;56065;52.472;13.380;2022-08-25T05:45:12;22.48;78.46
69009;SHT31;56065;52.472;13.380;2022-08-25T05:47:38;22.52;78.33
69009;SHT31;56065;52.472;13.380;2022-08-25T05:50:05;22.57;78.05
69009;SHT31;56065;52.472;13.380;2022-08-25T05:52:30;22.59;77.90
69009;SHT31;56065;52.472;13.380;2022-08-25T05:54:56;22.65;78.02
69009;SHT31;56065;52.472;13.380;2022-08-25T05:57:21;22.67;77.92
69009;SHT31;56065;52.472;13.380;2022-08-25T05:59:46;22.77;77.63
69009;SHT31;56065;52.472;13.380;2022-08-25T06:02:12;22.80;77.44
69009;SHT31;56065;52.472;13.380;2022-08-25T06:04:56;22.76;77.58
69009;SHT31;56065;52.472;13.380;2022-08-25T06:07:23;22.83;77.34
69009;SHT31;56065;52.472;13.380;2022-08-25T06:09:48;22.79;77.14
69009;SHT31;56065;52.472;13.380;2022-08-25T06:12:14;22.70;77.65
69009;SHT31;56065;52.472;13.380;2022-08-25T06:14:39;22.79;77.58
69009;SHT31;56065;52.472;13.380;2022-08-25T06:17:06;22.79;77.57
69009;SHT31;56065;52.472;13.380;2022-08-25T06:19:32;22.87;77.61
69009;SHT31;56065;52.472;13.380;2022-08-25T06:21:57;22.97;77.33
69009;SHT31;56065;52.472;13.380;2022-08-25T06:24:25;23.02;77.10
69009;SHT31;56065;52.472;13.380;2022-08-25T06:26:51;23.04;77.11
69009;SHT31;56065;52.472;13.380;2022-08-25T06:29:17;23.03;77.00
69009;SHT31;56065;52.472;13.380;2022-08-25T06:31:43;23.03;77.13
69009;SHT31;56065;52.472;13.380;2022-08-25T06:34:10;23.06;77.27
69009;SHT31;56065;52.472;13.380;2022-08-25T06:36:35;23.18;77.02
69009;SHT31;56065;52.472;13.380;2022-08-25T06:39:01;23.27;76.70
69009;SHT31;56065;52.472;13.380;2022-08-25T06:41:26;23.35;76.57
69009;SHT31;56065;52.472;13.380;2022-08-25T06:43:52;23.43;76.32
69009;SHT31;56065;52.472;13.380;2022-08-25T06:46:20;23.51;76.24
69009;SHT31;56065;52.472;13.380;2022-08-25T06:48:46;23.57;76.15
69009;SHT31;56065;52.472;13.380;2022-08-25T06:51:14;23.62;76.01
69009;SHT31;56065;52.472;13.380;2022-08-25T06:53:41;23.71;75.79
69009;SHT31;56065;52.472;13.380;2022-08-25T06:56:07;23.78;75.80
69009;SHT31;56065;52.472;13.380;2022-08-25T06:58:33;23.79;75.69
69009;SHT31;56065;52.472;13.380;2022-08-25T07:03:38;23.88;75.51
69009;SHT31;56065;52.472;13.380;2022-08-25T07:06:04;23.88;75.21
69009;SHT31;56065;52.472;13.380;2022-08-25T07:08:32;23.95;75.22
69009;SHT31;56065;52.472;13.380;2022-08-25T07:11:07;23.90;75.35
69009;SHT31;56065;52.472;13.380;2022-08-25T07:13:33;23.98;75.30
69009;SHT31;56065;52.472;13.380;2022-08-25T07:15:59;24.04;75.20
69009;SHT31;56065;52.472;13.380;2022-08-25T07:18:25;24.13;75.09
69009;SHT31;56065;52.472;13.380;2022-08-25T07:20:51;24.13;75.04
69009;SHT31;56065;52.472;13.380;2022-08-25T07:23:18;24.19;75.00
69009;SHT31;56065;52.472;13.380;2022-08-25T07:25:44;24.22;74.94
69009;SHT31;56065;52.472;13.380;2022-08-25T07:28:10;24.22;74.71
69009;SHT31;56065;52.472;13.380;2022-08-25T07:30:35;24.26;74.54
69009;SHT31;56065;52.472;13.380;2022-08-25T07:33:00;24.39;74.46
69009;SHT31;56065;52.472;13.380;2022-08-25T07:35:26;24.54;74.04
69009;SHT31;56065;52.472;13.380;2022-08-25T07:37:53;24.54;74.06
69009;SHT31;56065;52.472;13.380;2022-08-25T07:40:27;24.67;73.95
69009;SHT31;56065;52.472;13.380;2022-08-25T07:42:55;24.83;73.62
69009;SHT31;56065;52.472;13.380;2022-08-25T07:45:24;25.01;73.31
69009;SHT31;56065;52.472;13.380;2022-08-25T07:47:58;25.15;73.09
69009;SHT31;56065;52.472;13.380;2022-08-25T07:50:25;25.28;72.97
69009;SHT31;56065;52.472;13.380;2022-08-25T07:52:51;25.34;72.49
69009;SHT31;56065;52.472;13.380;2022-08-25T07:55:16;25.50;72.34
69009;SHT31;56065;52.472;13.380;2022-08-25T07:57:42;25.62;71.45
69009;SHT31;56065;52.472;13.380;2022-08-25T08:00:09;25.70;71.71
69009;SHT31;56065;52.472;13.380;2022-08-25T08:02:37;25.93;71.64
69009;SHT31;56065;52.472;13.380;2022-08-25T08:05:03;25.98;71.23
69009;SHT31;56065;52.472;13.380;2022-08-25T08:07:28;26.00;71.14
69009;SHT31;56065;52.472;13.380;2022-08-25T08:09:56;26.03;71.13
69009;SHT31;56065;52.472;13.380;2022-08-25T08:12:23;26.08;71.40
69009;SHT31;56065;52.472;13.380;2022-08-25T08:14:49;26.21;71.22
69009;SHT31;56065;52.472;13.380;2022-08-25T08:17:15;26.37;70.64
69009;SHT31;56065;52.472;13.380;2022-08-25T08:19:40;26.59;70.25
69009;SHT31;56065;52.472;13.380;2022-08-25T08:22:06;26.88;69.84
69009;SHT31;56065;52.472;13.380;2022-08-25T08:24:33;27.10;69.29
69009;SHT31;56065;52.472;13.380;2022-08-25T08:27:07;27.43;69.02
69009;SHT31;56065;52.472;13.380;2022-08-25T08:29:34;27.44;68.77
69009;SHT31;56065;52.472;13.380;2022-08-25T08:32:00;27.95;67.93
69009;SHT31;56065;52.472;13.380;2022-08-25T08:34:27;28.94;66.83
69009;SHT31;56065;52.472;13.380;2022-08-25T08:36:52;30.27;64.91
69009;SHT31;56065;52.472;13.380;2022-08-25T08:39:17;31.26;61.81
69009;SHT31;56065;52.472;13.380;2022-08-25T08:50:43;31.84;57.30
69009;SHT31;56065;52.472;13.380;2022-08-25T08:55:51;31.39;58.70
69009;SHT31;56065;52.472;13.380;2022-08-25T08:58:28;31.11;59.08
69009;SHT31;56065;52.472;13.380;2022-08-25T09:00:56;30.74;59.72
69009;SHT31;56065;52.472;13.380;2022-08-25T09:05:54;30.48;60.50
69009;SHT31;56065;52.472;13.380;2022-08-25T09:08:20;30.57;60.53
69009;SHT31;56065;52.472;13.380;2022-08-25T09:18:50;31.39;58.84
69009;SHT31;56065;52.472;13.380;2022-08-25T09:21:31;31.56;57.82
69009;SHT31;56065;52.472;13.380;2022-08-25T09:24:28;32.44;57.08
69009;SHT31;56065;52.472;13.380;2022-08-25T09:27:09;32.31;56.08
69009;SHT31;56065;52.472;13.380;2022-08-25T09:29:58;31.62;56.62
69009;SHT31;56065;52.472;13.380;2022-08-25T09:32:27;31.10;58.03
69009;SHT31;56065;52.472;13.380;2022-08-25T09:34:53;31.14;58.48
69009;SHT31;56065;52.472;13.380;2022-08-25T09:37:20;31.97;57.58
69009;SHT31;56065;52.472;13.380;2022-08-25T09:39:46;34.27;54.76
69009;SHT31;56065;52.472;13.380;2022-08-25T09:42:12;35.51;51.46
69009;SHT31;56065;52.472;13.380;2022-08-25T09:49:48;39.22;43.80
69009;SHT31;56065;52.472;13.380;2022-08-25T09:52:20;38.80;43.07
69009;SHT31;56065;52.472;13.380;2022-08-25T09:54:48;37.21;45.39
69009;SHT31;56065;52.472;13.380;2022-08-25T09:57:36;35.85;47.06
69009;SHT31;56065;52.472;13.380;2022-08-25T10:00:29;34.52;49.50
69009;SHT31;56065;52.472;13.380;2022-08-25T10:03:20;34.75;49.97
69009;SHT31;56065;52.472;13.380;2022-08-25T10:08:35;35.50;48.78
69009;SHT31;56065;52.472;13.380;2022-08-25T10:11:04;36.32;47.46
69009;SHT31;56065;52.472;13.380;2022-08-25T10:13:46;36.39;47.06
69009;SHT31;56065;52.472;13.380;2022-08-25T10:16:21;36.97;46.32
69009;SHT31;56065;52.472;13.380;2022-08-25T10:19:10;38.60;44.07
69009;SHT31;56065;52.472;13.380;2022-08-25T10:21:38;40.12;42.49
69009;SHT31;56065;52.472;13.380;2022-08-25T10:24:05;40.70;40.94
69009;SHT31;56065;52.472;13.380;2022-08-25T10:30:11;41.18;40.10
69009;SHT31;56065;52.472;13.380;2022-08-25T10:35:23;40.85;40.77
69009;SHT31;56065;52.472;13.380;2022-08-25T10:40:39;41.28;38.61
69009;SHT31;56065;52.472;13.380;2022-08-25T10:46:19;39.55;41.00
69009;SHT31;56065;52.472;13.380;2022-08-25T10:52:13;37.58;43.94
69009;SHT31;56065;52.472;13.380;2022-08-25T10:57:34;37.10;44.84
69009;SHT31;56065;52.472;13.380;2022-08-25T11:00:17;37.68;44.19
69009;SHT31;56065;52.472;13.380;2022-08-25T11:03:00;37.79;43.94
69009;SHT31;56065;52.472;13.380;2022-08-25T11:05:48;37.20;44.89
69009;SHT31;56065;52.472;13.380;2022-08-25T11:08:41;38.05;44.08
69009;SHT31;56065;52.472;13.380;2022-08-25T11:14:06;38.41;43.54
69009;SHT31;56065;52.472;13.380;2022-08-25T11:19:11;38.04;42.66
69009;SHT31;56065;52.472;13.380;2022-08-25T11:21:51;37.95;42.50
69009;SHT31;56065;52.472;13.380;2022-08-25T11:24:40;37.77;43.54
69009;SHT31;56065;52.472;13.380;2022-08-25T11:27:12;36.99;44.09
69009;SHT31;56065;52.472;13.380;2022-08-25T11:29:41;36.40;45.00
69009;SHT31;56065;52.472;13.380;2022-08-25T11:32:08;35.90;45.69
69009;SHT31;56065;52.472;13.380;2022-08-25T11:34:36;35.46;46.62
69009;SHT31;56065;52.472;13.380;2022-08-25T11:37:11;35.37;46.98
69009;SHT31;56065;52.472;13.380;2022-08-25T11:42:37;36.63;46.09
69009;SHT31;56065;52.472;13.380;2022-08-25T11:48:27;36.33;45.82
69009;SHT31;56065;52.472;13.380;2022-08-25T11:56:01;35.50;46.72
69009;SHT31;56065;52.472;13.380;2022-08-25T11:58:57;34.66;47.94
69009;SHT31;56065;52.472;13.380;2022-08-25T12:12:55;34.34;48.57
69009;SHT31;56065;52.472;13.380;2022-08-25T12:23:29;34.48;48.57
69009;SHT31;56065;52.472;13.380;2022-08-25T12:25:57;34.22;48.97
69009;SHT31;56065;52.472;13.380;2022-08-25T12:31:00;33.47;50.25
69009;SHT31;56065;52.472;13.380;2022-08-25T12:34:30;33.93;50.40
69009;SHT31;56065;52.472;13.380;2022-08-25T12:36:30;35.54;48.86
69009;SHT31;56065;52.472;13.380;2022-08-25T12:39:20;36.40;46.61
69009;SHT31;56065;52.472;13.380;2022-08-25T12:41:54;35.88;45.90
69009;SHT31;56065;52.472;13.380;2022-08-25T12:44:41;35.02;46.58
69009;SHT31;56065;52.472;13.380;2022-08-25T12:49:48;35.54;47.45
69009;SHT31;56065;52.472;13.380;2022-08-25T12:52:17;36.60;46.10
69009;SHT31;56065;52.472;13.380;2022-08-25T12:54:54;37.27;43.80
69009;SHT31;56065;52.472;13.380;2022-08-25T12:57:42;38.09;42.88
69009;SHT31;56065;52.472;13.380;2022-08-25T13:00:25;38.37;42.90
69009;SHT31;56065;52.472;13.380;2022-08-25T13:11:54;38.97;40.61
69009;SHT31;56065;52.472;13.380;2022-08-25T13:14:33;38.35;41.20
69009;SHT31;56065;52.472;13.380;2022-08-25T13:17:01;38.33;42.50
69009;SHT31;56065;52.472;13.380;2022-08-25T13:19:27;38.73;41.42
69009;SHT31;56065;52.472;13.380;2022-08-25T13:21:54;39.22;40.35
69009;SHT31;56065;52.472;13.380;2022-08-25T13:24:24;39.18;41.17
69009;SHT31;56065;52.472;13.380;2022-08-25T13:27:01;39.31;40.93
69009;SHT31;56065;52.472;13.380;2022-08-25T13:29:30;39.18;40.38
69009;SHT31;56065;52.472;13.380;2022-08-25T13:32:04;38.19;42.13
69009;SHT31;56065;52.472;13.380;2022-08-25T13:34:33;37.69;42.50
69009;SHT31;56065;52.472;13.380;2022-08-25T13:37:10;37.30;42.72
69009;SHT31;56065;52.472;13.380;2022-08-25T13:40:27;37.33;42.80
69009;SHT31;56065;52.472;13.380;2022-08-25T13:43:02;37.26;43.59
69009;SHT31;56065;52.472;13.380;2022-08-25T13:45:31;37.45;43.59
69009;SHT31;56065;52.472;13.380;2022-08-25T13:47:59;37.33;42.98
69009;SHT31;56065;52.472;13.380;2022-08-25T13:52:55;37.55;43.44
69009;SHT31;56065;52.472;13.380;2022-08-25T13:55:25;37.86;42.86
69009;SHT31;56065;52.472;13.380;2022-08-25T13:57:51;38.01;42.74
69009;SHT31;56065;52.472;13.380;2022-08-25T14:00:31;37.69;42.64
69009;SHT31;56065;52.472;13.380;2022-08-25T14:02:57;36.80;43.96
69009;SHT31;56065;52.472;13.380;2022-08-25T14:05:41;35.85;45.45
69009;SHT31;56065;52.472;13.380;2022-08-25T14:08:29;35.41;46.34
69009;SHT31;56065;52.472;13.380;2022-08-25T14:13:35;34.47;46.95
69009;SHT31;56065;52.472;13.380;2022-08-25T14:16:21;34.07;48.09
69009;SHT31;56065;52.472;13.380;2022-08-25T14:18:52;33.98;48.72
69009;SHT31;56065;52.472;13.380;2022-08-25T14:21:25;34.15;48.87
69009;SHT31;56065;52.472;13.380;2022-08-25T14:23:52;34.11;48.24
69009;SHT31;56065;52.472;13.380;2022-08-25T14:26:18;34.48;48.65
69009;SHT31;56065;52.472;13.380;2022-08-25T14:28:43;34.96;47.88
69009;SHT31;56065;52.472;13.380;2022-08-25T14:31:15;35.29;47.02
69009;SHT31;56065;52.472;13.380;2022-08-25T14:33:48;35.54;45.95
69009;SHT31;56065;52.472;13.380;2022-08-25T14:36:15;35.78;45.66
69009;SHT31;56065;52.472;13.380;2022-08-25T14:38:41;35.74;44.73
69009;SHT31;56065;52.472;13.380;2022-08-25T14:41:06;35.16;44.75
69009;SHT31;56065;52.472;13.380;2022-08-25T14:43:32;34.59;45.69
69009;SHT31;56065;52.472;13.380;2022-08-25T14:45:59;34.25;47.41
69009;SHT31;56065;52.472;13.380;2022-08-25T14:48:29;34.15;47.55
69009;SHT31;56065;52.472;13.380;2022-08-25T14:50:58;34.15;48.03
69009;SHT31;56065;52.472;13.380;2022-08-25T14:53:23;34.35;47.47
69009;SHT31;56065;52.472;13.380;2022-08-25T14:55:50;34.73;46.74
69009;SHT31;56065;52.472;13.380;2022-08-25T14:58:19;34.99;47.03
69009;SHT31;56065;52.472;13.380;2022-08-25T15:00:45;35.30;46.72
69009;SHT31;56065;52.472;13.380;2022-08-25T15:03:14;35.54;46.15
69009;SHT31;56065;52.472;13.380;2022-08-25T15:05:40;35.88;45.49
69009;SHT31;56065;52.472;13.380;2022-08-25T15:08:06;35.91;45.15
69009;SHT31;56065;52.472;13.380;2022-08-25T15:10:51;35.61;45.50
69009;SHT31;56065;52.472;13.380;2022-08-25T15:13:17;34.93;45.02
69009;SHT31;56065;52.472;13.380;2022-08-25T15:15:43;34.25;45.87
69009;SHT31;56065;52.472;13.380;2022-08-25T15:18:09;33.63;47.94
69009;SHT31;56065;52.472;13.380;2022-08-25T15:20:35;33.25;48.45
69009;SHT31;56065;52.472;13.380;2022-08-25T15:23:01;32.89;48.56
69009;SHT31;56065;52.472;13.380;2022-08-25T15:25:26;32.78;49.32
69009;SHT31;56065;52.472;13.380;2022-08-25T15:27:53;32.91;49.33
69009;SHT31;56065;52.472;13.380;2022-08-25T15:30:18;33.02;48.65
69009;SHT31;56065;52.472;13.380;2022-08-25T15:32:44;32.82;48.89
69009;SHT31;56065;52.472;13.380;2022-08-25T15:35:10;32.48;49.45
69009;SHT31;56065;52.472;13.380;2022-08-25T15:37:36;32.02;51.37
69009;SHT31;56065;52.472;13.380;2022-08-25T15:40:03;31.76;51.41
69009;SHT31;56065;52.472;13.380;2022-08-25T15:42:29;31.52;52.29
69009;SHT31;56065;52.472;13.380;2022-08-25T15:44:54;31.47;53.04
69009;SHT31;56065;52.472;13.380;2022-08-25T15:47:21;31.38;52.98
69009;SHT31;56065;52.472;13.380;2022-08-25T15:49:46;31.16;52.97
69009;SHT31;56065;52.472;13.380;2022-08-25T15:52:11;31.12;53.19
69009;SHT31;56065;52.472;13.380;2022-08-25T15:54:38;31.24;53.66
69009;SHT31;56065;52.472;13.380;2022-08-25T15:57:03;31.41;53.83
69009;SHT31;56065;52.472;13.380;2022-08-25T15:59:29;31.53;53.51
69009;SHT31;56065;52.472;13.380;2022-08-25T16:01:55;31.58;53.05
69009;SHT31;56065;52.472;13.380;2022-08-25T16:04:23;31.59;53.10
69009;SHT31;56065;52.472;13.380;2022-08-25T16:06:49;31.55;52.40
69009;SHT31;56065;52.472;13.380;2022-08-25T16:09:16;31.26;53.36
69009;SHT31;56065;52.472;13.380;2022-08-25T16:11:42;31.14;53.87
69009;SHT31;56065;52.472;13.380;2022-08-25T16:14:08;30.99;54.27
69009;SHT31;56065;52.472;13.380;2022-08-25T16:16:34;30.87;54.71
69009;SHT31;56065;52.472;13.380;2022-08-25T16:18:59;30.64;54.91
69009;SHT31;56065;52.472;13.380;2022-08-25T16:21:28;30.54;54.58
69009;SHT31;56065;52.472;13.380;2022-08-25T16:23:57;30.53;54.58
69009;SHT31;56065;52.472;13.380;2022-08-25T16:26:22;30.48;55.04
69009;SHT31;56065;52.472;13.380;2022-08-25T16:28:48;30.39;54.58
69009;SHT31;56065;52.472;13.380;2022-08-25T16:31:15;30.26;54.90
69009;SHT31;56065;52.472;13.380;2022-08-25T16:33:41;30.15;55.07
69009;SHT31;56065;52.472;13.380;2022-08-25T16:38:37;29.86;55.34
69009;SHT31;56065;52.472;13.380;2022-08-25T16:41:06;29.86;55.81
69009;SHT31;56065;52.472;13.380;2022-08-25T16:43:33;29.84;56.31
69009;SHT31;56065;52.472;13.380;2022-08-25T16:46:00;29.75;56.42
69009;SHT31;56065;52.472;13.380;2022-08-25T16:48:26;29.61;56.73
69009;SHT31;56065;52.472;13.380;2022-08-25T16:50:52;29.55;56.81
69009;SHT31;56065;52.472;13.380;2022-08-25T16:53:17;29.50;56.94
69009;SHT31;56065;52.472;13.380;2022-08-25T16:56:03;29.39;56.97
69009;SHT31;56065;52.472;13.380;2022-08-25T16:58:29;29.33;57.31
69009;SHT31;56065;52.472;13.380;2022-08-25T17:00:54;29.23;57.41
69009;SHT31;56065;52.472;13.380;2022-08-25T17:03:21;29.08;58.16
69009;SHT31;56065;52.472;13.380;2022-08-25T17:05:46;29.06;57.87
69009;SHT31;56065;52.472;13.380;2022-08-25T17:08:12;28.96;57.99
69009;SHT31;56065;52.472;13.380;2022-08-25T17:13:29;28.84;59.20
69009;SHT31;56065;52.472;13.380;2022-08-25T17:15:55;28.79;59.17
69009;SHT31;56065;52.472;13.380;2022-08-25T17:18:20;28.77;58.99
69009;SHT31;56065;52.472;13.380;2022-08-25T17:20:46;28.73;59.10